Time;durP1;ratioP1;P1;durP2;ratioP2;P2;SDS_P1;SDS_P2;PMS_P1;PMS_P2;Temp;Humidity;BMP_temperature;BMP_pressure;BME280_temperature;BME280_humidity;BME280_pressure;Samples;Min_cycle;Max_cycle;Signal;HPM_P1;HPM_P2
2020/12/09 00:01:45;;;;;;;5.43;3.65;;;1.80;99.90;;;;;;4982652;28;20249;-79
2020/12/09 00:04:12;;;;;;;6.85;3.75;;;1.80;99.90;;;;;;4980156;28;20265;-79
2020/12/09 00:06:38;;;;;;;5.18;3.50;;;1.80;99.90;;;;;;4981867;28;20203;-79
2020/12/09 00:09:13;;;;;;;6.53;3.42;;;1.80;99.90;;;;;;4987888;28;20225;-79
2020/12/09 00:11:39;;;;;;;7.18;4.15;;;1.80;99.90;;;;;;4983361;28;20782;-80
2020/12/09 00:14:08;;;;;;;5.72;3.40;;;1.80;99.90;;;;;;4999202;28;20199;-80
2020/12/09 00:16:34;;;;;;;5.15;3.47;;;1.80;99.90;;;;;;4991204;28;20213;-79
2020/12/09 00:21:28;;;;;;;6.88;4.03;;;1.80;99.90;;;;;;5050913;28;20225;-69
2020/12/09 00:23:53;;;;;;;8.80;4.25;;;1.70;99.90;;;;;;5061279;28;20212;-70
2020/12/09 00:26:21;;;;;;;6.55;3.88;;;1.80;99.90;;;;;;5045401;28;20243;-70
2020/12/09 00:28:48;;;;;;;5.65;3.65;;;1.80;99.90;;;;;;5045423;28;21006;-69
2020/12/09 00:31:14;;;;;;;7.32;4.10;;;1.80;99.90;;;;;;5043649;28;20201;-70
2020/12/09 00:33:40;;;;;;;7.85;3.92;;;1.70;99.90;;;;;;5062625;28;20646;-70
2020/12/09 00:36:06;;;;;;;7.22;3.72;;;1.80;99.90;;;;;;5045610;28;20254;-70
2020/12/09 00:38:31;;;;;;;6.80;3.88;;;1.80;99.90;;;;;;5043595;28;20209;-70
2020/12/09 00:40:57;;;;;;;5.53;4.05;;;1.80;99.90;;;;;;5064336;28;20223;-70
2020/12/09 00:43:23;;;;;;;5.97;3.97;;;1.80;99.90;;;;;;5042569;28;20201;-70
2020/12/09 00:45:49;;;;;;;6.43;4.07;;;1.90;99.90;;;;;;5061626;28;20293;-70
2020/12/09 00:48:14;;;;;;;5.70;3.90;;;1.90;99.90;;;;;;5062298;28;20193;-69
2020/12/09 00:50:40;;;;;;;7.32;4.18;;;1.90;99.90;;;;;;5063288;28;20701;-70
2020/12/09 00:53:05;;;;;;;7.82;4.10;;;1.90;99.90;;;;;;5042116;28;20615;-70
2020/12/09 00:55:31;;;;;;;7.32;4.50;;;1.90;99.90;;;;;;5059272;28;20582;-70
2020/12/09 00:57:57;;;;;;;9.40;4.60;;;1.90;99.90;;;;;;5061422;28;20653;-70
2020/12/09 01:00:23;;;;;;;8.25;4.85;;;1.90;99.90;;;;;;5039893;28;20696;-71
2020/12/09 01:02:49;;;;;;;8.38;4.65;;;1.90;99.90;;;;;;5062720;28;20201;-70
2020/12/09 01:05:15;;;;;;;7.10;4.40;;;1.90;99.90;;;;;;5062744;28;20192;-70
2020/12/09 01:07:41;;;;;;;8.75;4.40;;;1.90;99.90;;;;;;5063814;28;20275;-70
2020/12/09 01:10:08;;;;;;;7.55;4.30;;;1.90;99.90;;;;;;5062180;28;20209;-70
2020/12/09 01:12:37;;;;;;;7.43;4.43;;;1.90;99.90;;;;;;5061424;28;20322;-70
2020/12/09 01:15:03;;;;;;;7.20;4.13;;;1.90;99.90;;;;;;5060905;28;20200;-70
2020/12/09 01:17:29;;;;;;;7.75;4.70;;;1.90;99.90;;;;;;5082606;28;21898;-70
2020/12/09 01:19:55;;;;;;;6.57;4.60;;;2.00;99.90;;;;;;5082686;28;20216;-70
2020/12/09 01:22:20;;;;;;;10.85;4.90;;;2.00;99.90;;;;;;5082887;28;20654;-70
2020/12/09 01:24:46;;;;;;;8.13;4.53;;;2.00;99.90;;;;;;5080767;28;20212;-70
2020/12/09 01:27:12;;;;;;;10.02;4.80;;;2.00;99.90;;;;;;5064263;28;20199;-70
2020/12/09 01:29:37;;;;;;;7.93;4.47;;;2.00;99.90;;;;;;5079405;28;20206;-70
2020/12/09 01:32:03;;;;;;;11.07;5.05;;;2.00;99.90;;;;;;5064924;28;20287;-70
2020/12/09 01:34:30;;;;;;;9.05;5.28;;;2.00;99.90;;;;;;5078627;28;20252;-71
2020/12/09 01:36:58;;;;;;;9.65;4.82;;;2.00;99.90;;;;;;5080370;28;20192;-70
2020/12/09 01:39:24;;;;;;;8.80;5.13;;;2.00;99.90;;;;;;5080247;28;20361;-70
2020/12/09 01:41:49;;;;;;;9.50;4.70;;;2.00;99.90;;;;;;5082979;28;20880;-70
2020/12/09 01:44:15;;;;;;;9.27;4.68;;;2.10;99.90;;;;;;5080653;28;20765;-70
2020/12/09 01:46:42;;;;;;;8.63;5.13;;;2.00;99.90;;;;;;5061709;28;20275;-70
2020/12/09 01:49:10;;;;;;;9.70;5.75;;;2.00;99.90;;;;;;5082970;28;20196;-70
2020/12/09 01:51:36;;;;;;;9.50;4.93;;;2.00;99.90;;;;;;5082163;28;20267;-70
2020/12/09 01:54:01;;;;;;;8.43;4.78;;;2.00;99.90;;;;;;5081821;28;20544;-70
2020/12/09 01:56:28;;;;;;;8.18;5.00;;;2.00;99.90;;;;;;5079894;28;20211;-70
2020/12/09 01:58:55;;;;;;;11.48;5.30;;;2.00;99.90;;;;;;5063142;28;20227;-69
2020/12/09 02:01:22;;;;;;;10.25;5.10;;;2.00;99.90;;;;;;5062547;28;20203;-66
2020/12/09 02:03:49;;;;;;;9.40;5.30;;;2.00;99.90;;;;;;5063459;23;20257;-69
2020/12/09 02:06:19;;;;;;;10.80;5.07;;;2.00;99.90;;;;;;5042884;28;20205;-69
2020/12/09 02:08:45;;;;;;;10.00;5.00;;;2.00;99.90;;;;;;5055356;28;20738;-69
2020/12/09 02:11:11;;;;;;;8.68;5.05;;;2.00;99.90;;;;;;5058481;28;20194;-69
2020/12/09 02:13:44;;;;;;;8.90;5.15;;;2.00;99.90;;;;;;5054325;28;20200;-70
2020/12/09 02:16:13;;;;;;;13.77;5.35;;;2.00;99.90;;;;;;5053937;28;20207;-70
2020/12/09 02:18:39;;;;;;;8.65;4.72;;;2.10;99.90;;;;;;5057741;28;20201;-70
2020/12/09 02:21:05;;;;;;;9.23;5.20;;;2.20;99.90;;;;;;5054214;28;20195;-70
2020/12/09 02:23:31;;;;;;;11.25;5.40;;;2.10;99.90;;;;;;5053238;28;20224;-70
2020/12/09 02:25:57;;;;;;;12.32;5.53;;;2.10;99.90;;;;;;5058464;28;20284;-70
2020/12/09 02:28:22;;;;;;;9.43;5.25;;;2.20;99.90;;;;;;5061210;28;20836;-70
2020/12/09 02:30:48;;;;;;;9.90;5.32;;;2.10;99.90;;;;;;5057753;28;20207;-70
2020/12/09 02:33:14;;;;;;;10.20;5.20;;;2.10;99.90;;;;;;5058998;28;20205;-70
2020/12/09 02:35:39;;;;;;;9.75;5.55;;;2.10;99.90;;;;;;5057030;28;20666;-70
2020/12/09 02:38:05;;;;;;;9.95;5.43;;;2.10;99.90;;;;;;5058923;28;20207;-70
2020/12/09 02:40:31;;;;;;;11.90;5.70;;;2.10;99.90;;;;;;5060360;28;20205;-70
2020/12/09 02:42:57;;;;;;;10.35;5.45;;;2.20;99.90;;;;;;5060533;28;20232;-70
2020/12/09 02:45:23;;;;;;;8.10;5.25;;;2.10;99.90;;;;;;5059127;28;20273;-70
2020/12/09 02:47:49;;;;;;;11.27;5.03;;;2.10;99.90;;;;;;5061049;28;20186;-69
2020/12/09 02:50:15;;;;;;;11.80;5.03;;;2.20;99.90;;;;;;5057333;28;20585;-70
2020/12/09 02:52:40;;;;;;;8.63;4.97;;;2.20;99.90;;;;;;5057777;28;20200;-70
2020/12/09 02:55:06;;;;;;;10.48;5.35;;;2.20;99.90;;;;;;5056356;28;20192;-69
2020/12/09 02:57:32;;;;;;;11.30;5.60;;;2.10;99.90;;;;;;5059887;28;20200;-70
2020/12/09 02:59:57;;;;;;;9.60;5.43;;;2.10;99.90;;;;;;5059233;28;20284;-70
2020/12/09 03:02:23;;;;;;;10.38;5.72;;;2.10;99.90;;;;;;5054573;28;20284;-70
2020/12/09 03:04:49;;;;;;;10.68;5.68;;;2.20;99.90;;;;;;5053665;28;20448;-70
2020/12/09 03:07:14;;;;;;;15.45;5.78;;;2.20;99.90;;;;;;5059897;28;20284;-70
2020/12/09 03:09:40;;;;;;;11.75;5.97;;;2.20;99.90;;;;;;5060978;28;20295;-70
2020/12/09 03:12:06;;;;;;;8.38;4.75;;;2.30;99.90;;;;;;5059613;28;20194;-70
2020/12/09 03:14:31;;;;;;;14.90;6.10;;;2.30;99.90;;;;;;5059376;28;20200;-69
2020/12/09 03:16:57;;;;;;;13.68;5.80;;;2.30;99.90;;;;;;5059793;28;20192;-70
2020/12/09 03:19:22;;;;;;;10.80;5.47;;;2.30;99.90;;;;;;5060963;28;20197;-69
2020/12/09 03:21:48;;;;;;;12.80;5.90;;;2.30;99.90;;;;;;5057101;28;20263;-70
2020/12/09 03:24:14;;;;;;;12.80;5.47;;;2.30;99.90;;;;;;5059828;28;20262;-69
2020/12/09 03:26:39;;;;;;;11.98;6.28;;;2.30;99.90;;;;;;5059679;28;20219;-70
2020/12/09 03:29:05;;;;;;;11.70;5.65;;;2.30;99.90;;;;;;5058326;28;20192;-70
2020/12/09 03:31:31;;;;;;;10.30;5.57;;;2.30;99.90;;;;;;5058416;28;20197;-70
2020/12/09 03:33:57;;;;;;;13.35;6.07;;;2.30;99.90;;;;;;5059635;28;20354;-69
2020/12/09 03:36:22;;;;;;;11.52;5.72;;;2.30;99.90;;;;;;5056547;28;20252;-69
2020/12/09 03:38:48;;;;;;;11.50;5.75;;;2.30;99.90;;;;;;5056361;28;20198;-70
2020/12/09 03:41:14;;;;;;;10.63;5.30;;;2.30;99.90;;;;;;5057120;28;20279;-69
2020/12/09 03:43:40;;;;;;;10.27;5.55;;;2.30;99.90;;;;;;5050878;28;20216;-70
2020/12/09 03:46:05;;;;;;;12.10;5.93;;;2.30;99.90;;;;;;5054702;28;20657;-70
2020/12/09 03:48:31;;;;;;;13.80;6.53;;;2.30;99.90;;;;;;5052490;28;20216;-70
2020/12/09 03:50:57;;;;;;;15.93;6.05;;;2.40;99.90;;;;;;5054196;28;20198;-70
2020/12/09 03:53:23;;;;;;;11.85;6.28;;;2.30;99.90;;;;;;5060763;28;20199;-70
2020/12/09 03:55:49;;;;;;;10.07;5.93;;;2.30;99.90;;;;;;5063108;28;20203;-70
2020/12/09 03:58:15;;;;;;;12.98;6.20;;;2.40;99.90;;;;;;5059211;28;20197;-70
2020/12/09 04:00:41;;;;;;;11.80;6.22;;;2.30;99.90;;;;;;5057553;28;20643;-70
2020/12/09 04:03:06;;;;;;;13.50;5.80;;;2.40;99.90;;;;;;5061178;28;20551;-69
2020/12/09 04:05:32;;;;;;;14.55;6.20;;;2.40;99.90;;;;;;5061229;28;20224;-70
2020/12/09 04:07:58;;;;;;;11.50;6.00;;;2.30;99.90;;;;;;5058562;28;20208;-70
2020/12/09 04:10:24;;;;;;;13.48;6.03;;;2.30;99.90;;;;;;5069326;22;20333;-79
2020/12/09 04:12:49;;;;;;;15.55;6.15;;;2.30;99.90;;;;;;5050394;28;20197;-80
2020/12/09 04:15:16;;;;;;;12.18;6.45;;;2.40;99.90;;;;;;5050396;28;20193;-79
2020/12/09 04:17:41;;;;;;;14.85;6.25;;;2.40;99.90;;;;;;5049564;28;20186;-81
2020/12/09 04:20:13;;;;;;;12.93;6.10;;;2.40;99.90;;;;;;5038693;28;20205;-82
2020/12/09 04:22:39;;;;;;;12.65;5.95;;;2.40;99.90;;;;;;5039508;28;20197;-81
2020/12/09 04:25:04;;;;;;;11.68;5.53;;;2.40;99.90;;;;;;5043844;28;20206;-79
2020/12/09 04:27:30;;;;;;;10.75;5.70;;;2.50;99.90;;;;;;5043916;28;20205;-80
2020/12/09 04:29:56;;;;;;;11.32;5.68;;;2.50;99.90;;;;;;5044305;28;20259;-79
2020/12/09 04:32:22;;;;;;;11.25;5.43;;;2.40;99.90;;;;;;5046609;28;20197;-79
2020/12/09 04:34:48;;;;;;;11.68;6.05;;;2.50;99.90;;;;;;5042448;28;20368;-79
2020/12/09 04:37:14;;;;;;;13.27;5.80;;;2.40;99.90;;;;;;5045976;28;20233;-79
2020/12/09 04:39:40;;;;;;;12.30;5.80;;;2.40;99.90;;;;;;5037960;28;20204;-79
2020/12/09 04:42:06;;;;;;;14.90;6.15;;;2.40;99.90;;;;;;5044326;28;20197;-79
2020/12/09 04:44:31;;;;;;;13.65;5.65;;;2.40;99.90;;;;;;5042980;28;20675;-79
2020/12/09 04:47:03;;;;;;;11.20;5.30;;;2.40;99.90;;;;;;5044306;28;20197;-80
2020/12/09 04:49:39;;;;;;;12.15;5.10;;;2.40;99.90;;;;;;5043060;28;20219;-80
2020/12/09 04:52:21;;;;;;;13.77;5.80;;;2.40;99.90;;;;;;5045708;28;20555;-79
2020/12/09 04:54:47;;;;;;;12.40;4.88;;;2.40;99.90;;;;;;5038644;28;20830;-80
2020/12/09 04:57:18;;;;;;;9.73;5.03;;;2.40;99.90;;;;;;5045055;28;20194;-80
2020/12/09 05:00:02;;;;;;;11.38;5.35;;;2.40;99.90;;;;;;5046040;28;20239;-80
2020/12/09 05:02:46;;;;;;;10.27;5.07;;;2.40;99.90;;;;;;5037865;28;20220;-79
2020/12/09 05:05:17;;;;;;;11.82;5.63;;;2.40;99.90;;;;;;5039842;28;20189;-80
2020/12/09 05:07:48;;;;;;;8.48;4.47;;;2.50;99.90;;;;;;5034538;28;20790;-80
2020/12/09 05:10:19;;;;;;;9.88;5.18;;;2.50;99.90;;;;;;5043855;28;20194;-81
2020/12/09 05:12:47;;;;;;;11.27;5.10;;;2.60;99.90;;;;;;5045443;28;20230;-80
2020/12/09 05:15:19;;;;;;;11.25;5.18;;;2.50;99.90;;;;;;5049934;28;20201;-80
2020/12/09 05:18:09;;;;;;;10.00;5.15;;;2.50;99.90;;;;;;5048028;28;20197;-80
2020/12/09 05:20:38;;;;;;;10.85;4.72;;;2.50;99.90;;;;;;5045427;28;20221;-79
2020/12/09 05:23:05;;;;;;;12.38;5.03;;;2.50;99.90;;;;;;5046127;28;20735;-80
2020/12/09 05:25:38;;;;;;;8.63;4.47;;;2.50;99.90;;;;;;5040914;28;20355;-79
2020/12/09 05:28:10;;;;;;;11.05;4.55;;;2.60;99.90;;;;;;5042190;28;20656;-80
2020/12/09 05:30:44;;;;;;;12.00;4.90;;;2.60;99.90;;;;;;5035116;28;20570;-83
2020/12/09 05:33:29;;;;;;;9.80;5.05;;;2.60;99.90;;;;;;5018349;28;20247;-81
2020/12/09 05:36:03;;;;;;;12.25;4.90;;;2.60;99.90;;;;;;5033888;28;20696;-81
2020/12/09 05:38:30;;;;;;;8.75;4.57;;;2.50;99.90;;;;;;5035174;28;20711;-80
2020/12/09 05:40:57;;;;;;;11.20;4.85;;;2.60;99.90;;;;;;5037525;28;20190;-81
2020/12/09 05:43:23;;;;;;;7.97;4.05;;;2.60;99.90;;;;;;5038826;28;20218;-82
2020/12/09 05:45:49;;;;;;;10.75;4.80;;;2.60;99.90;;;;;;5044894;28;20300;-83
2020/12/09 05:48:16;;;;;;;12.93;5.07;;;2.60;99.90;;;;;;5037475;28;20190;-81
2020/12/09 05:50:56;;;;;;;9.27;4.70;;;2.60;99.90;;;;;;5040761;28;20297;-80
2020/12/09 05:53:27;;;;;;;8.77;4.55;;;2.70;99.90;;;;;;5047169;28;20194;-79
2020/12/09 05:56:14;;;;;;;10.20;4.63;;;2.60;99.90;;;;;;5043831;28;20190;-79
2020/12/09 05:58:42;;;;;;;10.27;4.43;;;2.60;99.90;;;;;;5044947;28;21009;-79
2020/12/09 06:01:08;;;;;;;10.48;4.80;;;2.60;99.90;;;;;;5048096;28;20202;-81
2020/12/09 06:03:35;;;;;;;16.85;5.10;;;2.60;99.90;;;;;;5043909;28;20210;-79
2020/12/09 06:06:09;;;;;;;10.88;4.63;;;2.70;99.90;;;;;;5044696;28;20205;-79
2020/12/09 06:08:43;;;;;;;8.90;4.63;;;2.70;99.90;;;;;;5038936;28;20216;-79
2020/12/09 06:11:09;;;;;;;15.05;4.65;;;2.70;99.90;;;;;;5037506;28;20327;-80
2020/12/09 06:13:36;;;;;;;9.38;4.90;;;2.70;99.90;;;;;;5049415;28;20227;-79
2020/12/09 06:16:06;;;;;;;11.23;4.90;;;2.60;99.90;;;;;;5064007;28;20204;-79
2020/12/09 06:18:34;;;;;;;14.25;4.90;;;2.60;99.90;;;;;;5048437;28;20200;-79
2020/12/09 06:21:00;;;;;;;7.68;4.78;;;2.60;99.90;;;;;;5048526;28;20718;-80
2020/12/09 06:23:27;;;;;;;13.48;4.57;;;2.60;99.90;;;;;;5047638;28;20312;-79
2020/12/09 06:25:58;;;;;;;12.77;4.75;;;2.60;99.90;;;;;;5060299;28;20185;-79
2020/12/09 06:28:26;;;;;;;10.82;4.90;;;2.60;99.90;;;;;;5044387;28;20188;-79
2020/12/09 06:30:54;;;;;;;13.35;5.80;;;2.70;99.90;;;;;;5043901;28;20189;-79
2020/12/09 06:33:40;;;;;;;9.90;5.00;;;2.70;99.90;;;;;;5041968;28;20203;-78
2020/12/09 06:36:27;;;;;;;17.27;8.32;;;2.60;99.90;;;;;;5044551;28;20201;-79
2020/12/09 06:39:19;;;;;;;13.43;5.18;;;2.60;99.90;;;;;;5047475;28;20197;-79
2020/12/09 06:41:51;;;;;;;12.95;5.53;;;2.70;99.90;;;;;;5042643;28;20273;-79
2020/12/09 06:44:17;;;;;;;11.85;5.07;;;2.70;99.90;;;;;;5045533;28;20205;-78
2020/12/09 06:46:48;;;;;;;11.82;6.18;;;2.70;99.90;;;;;;5049998;28;20197;-80
2020/12/09 06:49:29;;;;;;;12.38;6.00;;;2.60;99.90;;;;;;5049538;28;20284;-79
2020/12/09 06:51:56;;;;;;;18.27;5.75;;;2.70;99.90;;;;;;5049468;28;20666;-79
2020/12/09 06:54:35;;;;;;;11.90;5.40;;;2.70;99.90;;;;;;5045406;28;20292;-80
2020/12/09 06:57:27;;;;;;;14.60;6.00;;;2.60;99.90;;;;;;5067546;28;20677;-78
2020/12/09 07:00:11;;;;;;;13.68;7.43;;;2.60;99.90;;;;;;5014246;28;20581;-80
2020/12/09 07:02:41;;;;;;;41.30;17.55;;;2.60;99.90;;;;;;5049526;28;20289;-79
2020/12/09 07:05:27;;;;;;;19.17;8.80;;;2.70;99.90;;;;;;5043874;28;20676;-80
2020/12/09 07:08:00;;;;;;;15.10;5.57;;;2.70;99.90;;;;;;5041225;28;20282;-84
2020/12/09 07:10:28;;;;;;;16.58;6.00;;;2.70;99.90;;;;;;5043845;28;20691;-82
2020/12/09 07:13:07;;;;;;;14.85;6.10;;;2.70;99.90;;;;;;5042388;28;20213;-82
2020/12/09 07:15:35;;;;;;;21.63;6.60;;;2.70;99.90;;;;;;5061715;28;20668;-81
2020/12/09 07:18:01;;;;;;;19.00;8.18;;;2.70;99.90;;;;;;5064307;28;20201;-81
2020/12/09 07:20:27;;;;;;;26.05;6.18;;;2.80;99.90;;;;;;5048918;28;20211;-81
2020/12/09 07:22:53;;;;;;;17.67;6.20;;;2.80;99.90;;;;;;5049883;28;20277;-81
2020/12/09 07:25:19;;;;;;;19.88;6.80;;;2.80;99.90;;;;;;5048028;28;20291;-83
2020/12/09 07:27:46;;;;;;;15.40;6.40;;;2.80;99.90;;;;;;5042705;28;20662;-81
2020/12/09 07:30:14;;;;;;;17.88;5.93;;;2.80;99.90;;;;;;5050404;28;20235;-81
2020/12/09 07:32:40;;;;;;;27.50;7.43;;;2.80;99.90;;;;;;5063559;28;20734;-82
2020/12/09 07:35:11;;;;;;;21.13;8.23;;;2.80;99.90;;;;;;5049998;28;20355;-82
2020/12/09 07:37:40;;;;;;;21.20;6.72;;;2.90;99.90;;;;;;5057852;28;20201;-81
2020/12/09 07:40:24;;;;;;;16.90;7.30;;;2.90;99.90;;;;;;5041658;28;20553;-84
2020/12/09 07:43:09;;;;;;;20.73;7.32;;;2.90;99.90;;;;;;5045397;28;20197;-85
2020/12/09 07:45:41;;;;;;;36.53;7.20;;;2.90;99.90;;;;;;5067586;28;20238;-81
2020/12/09 07:48:12;;;;;;;18.35;6.82;;;2.80;99.90;;;;;;5048877;28;20197;-81
2020/12/09 07:50:39;;;;;;;23.13;7.70;;;2.80;99.90;;;;;;5041948;28;20200;-80
2020/12/09 07:53:09;;;;;;;22.95;7.28;;;2.80;99.90;;;;;;5050694;28;20200;-79
2020/12/09 07:55:35;;;;;;;19.52;7.35;;;2.90;99.90;;;;;;5071812;28;20193;-79
2020/12/09 07:58:12;;;;;;;17.85;7.25;;;3.00;99.90;;;;;;5047164;28;20670;-79
2020/12/09 08:00:40;;;;;;;18.70;7.45;;;2.90;99.90;;;;;;5063771;28;20711;-81
2020/12/09 08:03:07;;;;;;;17.98;6.70;;;2.90;99.90;;;;;;5045486;28;20190;-85
2020/12/09 08:05:35;;;;;;;18.92;7.78;;;2.90;99.90;;;;;;5067570;28;20280;-81
2020/12/09 08:08:03;;;;;;;22.92;7.82;;;2.90;99.90;;;;;;5068332;28;20260;-81
2020/12/09 08:10:31;;;;;;;27.48;8.52;;;2.90;99.90;;;;;;5043860;28;20221;-80
2020/12/09 08:13:05;;;;;;;19.60;7.57;;;2.90;99.90;;;;;;5065260;28;20681;-83
2020/12/09 08:15:33;;;;;;;17.67;6.75;;;3.00;99.90;;;;;;5068196;28;20202;-83
2020/12/09 08:18:01;;;;;;;21.25;7.82;;;2.90;99.90;;;;;;5066844;28;20645;-82
2020/12/09 08:20:27;;;;;;;30.67;11.00;;;2.90;99.90;;;;;;5046081;28;20213;-81
2020/12/09 08:22:58;;;;;;;27.48;10.55;;;2.90;99.90;;;;;;5061827;28;20190;-82
2020/12/09 08:25:29;;;;;;;23.67;8.75;;;3.00;99.90;;;;;;5064783;28;20951;-82
2020/12/09 08:28:14;;;;;;;26.38;8.98;;;2.90;99.90;;;;;;5046999;28;20211;-82
2020/12/09 08:30:40;;;;;;;26.88;11.55;;;3.00;99.90;;;;;;5048031;28;20192;-82
2020/12/09 08:33:12;;;;;;;19.48;8.57;;;3.00;99.90;;;;;;5050237;28;20204;-83
2020/12/09 08:35:58;;;;;;;13.32;7.38;;;3.00;99.90;;;;;;5046489;28;20197;-83
2020/12/09 08:38:50;;;;;;;17.77;8.25;;;3.00;99.90;;;;;;5045229;28;20204;-82
2020/12/09 08:41:24;;;;;;;16.88;7.47;;;3.00;99.90;;;;;;5045354;28;20208;-83
2020/12/09 08:43:54;;;;;;;16.60;7.13;;;3.00;99.90;;;;;;5059490;28;20204;-82
2020/12/09 08:46:21;;;;;;;14.00;6.82;;;2.90;99.90;;;;;;5043879;28;20730;-82
2020/12/09 08:48:47;;;;;;;16.25;6.95;;;3.00;99.90;;;;;;5045697;28;20273;-81
2020/12/09 08:51:12;;;;;;;14.70;7.00;;;3.00;99.90;;;;;;5044756;28;20656;-82
2020/12/09 08:53:38;;;;;;;16.17;7.07;;;3.00;99.90;;;;;;5046450;28;20721;-80
2020/12/09 08:56:04;;;;;;;20.77;8.75;;;3.10;99.90;;;;;;5042773;28;20196;-80
2020/12/09 08:58:29;;;;;;;15.70;6.75;;;3.10;99.90;;;;;;5049511;28;20250;-81
2020/12/09 09:01:00;;;;;;;14.90;6.80;;;3.10;99.90;;;;;;5046997;28;20205;-83
2020/12/09 09:03:36;;;;;;;11.98;6.00;;;3.10;99.90;;;;;;5048167;28;20223;-86
2020/12/09 09:06:08;;;;;;;11.95;5.65;;;3.10;99.90;;;;;;5040797;28;20591;-83
2020/12/09 09:08:33;;;;;;;16.23;6.22;;;3.10;99.90;;;;;;5048004;28;20281;-83
2020/12/09 09:10:59;;;;;;;12.63;5.68;;;3.00;99.90;;;;;;5041025;28;20257;-82
2020/12/09 09:13:31;;;;;;;9.88;5.68;;;3.00;99.90;;;;;;5036581;28;20198;-83
2020/12/09 09:15:57;;;;;;;12.40;6.30;;;3.00;99.90;;;;;;5035852;28;20205;-82
2020/12/09 09:18:26;;;;;;;12.85;6.05;;;3.00;99.90;;;;;;5037224;28;20198;-82
2020/12/09 09:20:53;;;;;;;19.90;6.07;;;3.10;99.90;;;;;;5033538;28;20567;-82
2020/12/09 09:23:19;;;;;;;12.63;5.70;;;3.00;99.90;;;;;;5036737;28;20205;-82
2020/12/09 09:25:44;;;;;;;12.75;5.63;;;3.00;99.90;;;;;;5038656;28;20243;-81
2020/12/09 09:28:10;;;;;;;12.32;6.20;;;3.00;99.90;;;;;;5042080;28;20208;-82
2020/12/09 09:30:46;;;;;;;10.20;5.25;;;3.10;99.90;;;;;;5041185;28;20197;-84
2020/12/09 09:36:19;;;;;;;9.10;5.28;;;3.10;99.90;;;;;;5030686;28;20209;-85
2020/12/09 09:38:45;;;;;;;11.15;5.32;;;3.10;99.90;;;;;;5038613;28;20220;-82
2020/12/09 09:41:11;;;;;;;11.13;5.95;;;3.10;99.90;;;;;;5040378;28;20197;-81
2020/12/09 09:43:37;;;;;;;7.97;4.40;;;3.20;99.90;;;;;;5038408;28;20622;-82
2020/12/09 09:46:02;;;;;;;12.52;5.38;;;3.20;99.90;;;;;;5035185;28;20782;-83
2020/12/09 09:48:28;;;;;;;10.63;5.88;;;3.20;99.90;;;;;;5039661;28;20216;-83
2020/12/09 09:50:57;;;;;;;10.25;5.53;;;3.30;99.90;;;;;;5041442;28;20200;-84
2020/12/09 09:53:23;;;;;;;32.20;15.63;;;3.30;99.90;;;;;;5037616;28;20205;-82
2020/12/09 09:55:48;;;;;;;15.75;8.15;;;3.20;99.90;;;;;;5058435;28;20193;-82
2020/12/09 09:58:14;;;;;;;11.68;6.53;;;3.30;99.90;;;;;;5041728;28;20274;-81
2020/12/09 10:00:40;;;;;;;11.00;5.90;;;3.30;99.90;;;;;;5036653;28;20215;-81
2020/12/09 10:03:05;;;;;;;13.07;5.88;;;3.30;99.90;;;;;;5035670;28;20254;-81
2020/12/09 10:05:31;;;;;;;9.40;5.22;;;3.30;99.90;;;;;;5033591;28;20202;-82
2020/12/09 10:07:57;;;;;;;10.98;5.47;;;3.30;99.90;;;;;;5038573;28;20330;-80
2020/12/09 10:10:23;;;;;;;10.30;5.03;;;3.30;99.90;;;;;;5032597;28;20193;-82
2020/12/09 10:12:48;;;;;;;9.63;5.18;;;3.20;99.90;;;;;;5037594;28;20227;-81
2020/12/09 10:15:17;;;;;;;8.63;5.00;;;3.20;99.90;;;;;;5040794;28;20200;-85
2020/12/09 10:17:50;;;;;;;9.38;5.63;;;3.20;99.90;;;;;;5039624;28;20203;-82
2020/12/09 10:20:16;;;;;;;9.07;5.25;;;3.20;99.90;;;;;;5044218;28;20200;-83
2020/12/09 10:22:42;;;;;;;10.07;5.20;;;3.30;99.90;;;;;;5040479;28;20197;-82
2020/12/09 10:25:07;;;;;;;8.93;5.00;;;3.30;99.90;;;;;;5039683;28;20569;-82
2020/12/09 10:27:33;;;;;;;7.90;5.07;;;3.30;99.90;;;;;;5044902;28;20220;-82
2020/12/09 10:29:59;;;;;;;14.27;5.80;;;3.30;99.90;;;;;;5042270;28;20283;-84
2020/12/09 10:32:26;;;;;;;10.32;5.63;;;3.30;99.90;;;;;;5041899;28;20192;-83
2020/12/09 10:34:52;;;;;;;10.45;5.28;;;3.40;99.90;;;;;;5061834;28;20201;-83
2020/12/09 10:37:17;;;;;;;9.75;5.57;;;3.40;99.90;;;;;;5045232;28;20258;-83
2020/12/09 10:39:43;;;;;;;8.30;4.93;;;3.40;99.90;;;;;;5041902;28;20228;-82
2020/12/09 10:42:09;;;;;;;8.45;4.60;;;3.30;99.90;;;;;;5042302;28;20235;-82
2020/12/09 10:44:34;;;;;;;8.77;4.90;;;3.30;99.90;;;;;;5034603;28;20271;-82
2020/12/09 10:47:01;;;;;;;10.77;4.80;;;3.40;99.90;;;;;;5054373;28;20600;-82
2020/12/09 10:49:32;;;;;;;9.68;5.25;;;3.40;99.90;;;;;;5037707;28;20193;-82
2020/12/09 10:51:59;;;;;;;10.82;4.50;;;3.40;99.90;;;;;;5049985;28;20217;-82
2020/12/09 10:54:24;;;;;;;9.68;5.60;;;3.40;99.90;;;;;;5036474;28;20280;-82
2020/12/09 10:56:50;;;;;;;8.80;5.13;;;3.40;99.90;;;;;;5056799;28;20263;-82
2020/12/09 10:59:17;;;;;;;8.50;5.15;;;3.40;99.90;;;;;;5043459;28;20283;-81
2020/12/09 11:01:46;;;;;;;10.18;5.10;;;3.40;99.90;;;;;;5054283;28;20959;-82
2020/12/09 11:04:12;;;;;;;8.82;5.15;;;3.50;99.90;;;;;;5045166;28;20216;-81
2020/12/09 11:06:38;;;;;;;9.15;5.18;;;3.50;99.90;;;;;;5041572;28;20228;-82
2020/12/09 11:09:07;;;;;;;6.60;4.43;;;3.50;99.90;;;;;;5040285;28;20402;-81
2020/12/09 11:11:33;;;;;;;7.80;4.95;;;3.60;99.90;;;;;;5032645;28;20308;-82
2020/12/09 11:14:00;;;;;;;10.90;5.60;;;3.60;99.90;;;;;;5039276;28;20718;-82
2020/12/09 11:16:25;;;;;;;8.55;4.95;;;3.50;99.90;;;;;;5036876;28;20193;-82
2020/12/09 11:18:52;;;;;;;8.70;4.97;;;3.60;99.90;;;;;;5035437;28;20908;-82
2020/12/09 11:21:23;;;;;;;10.60;5.38;;;3.60;99.90;;;;;;5033430;28;20229;-81
2020/12/09 11:23:52;;;;;;;9.40;5.15;;;3.60;99.90;;;;;;5031441;28;20212;-82
2020/12/09 11:26:19;;;;;;;8.45;5.40;;;3.60;99.90;;;;;;5035703;28;20195;-81
2020/12/09 11:28:46;;;;;;;9.45;5.53;;;3.60;99.90;;;;;;5031969;28;20194;-83
2020/12/09 11:31:13;;;;;;;8.10;5.05;;;3.70;99.90;;;;;;5039883;28;20694;-82
2020/12/09 11:33:38;;;;;;;9.00;5.03;;;3.70;99.90;;;;;;5039015;28;20288;-81
2020/12/09 11:36:05;;;;;;;10.35;5.03;;;3.70;99.90;;;;;;5036558;28;20319;-81
2020/12/09 11:38:31;;;;;;;10.73;5.40;;;3.60;99.90;;;;;;5048156;28;20201;-80
2020/12/09 11:40:57;;;;;;;11.52;5.47;;;3.60;99.90;;;;;;5038649;28;20205;-80
2020/12/09 11:43:33;;;;;;;10.65;5.13;;;3.70;99.90;;;;;;5050185;28;20667;-82
2020/12/09 11:46:01;;;;;;;10.10;5.60;;;3.60;99.90;;;;;;5048056;28;20288;-81
2020/12/09 11:48:27;;;;;;;10.38;4.90;;;3.70;99.90;;;;;;5044704;28;20184;-80
2020/12/09 11:50:53;;;;;;;11.73;5.22;;;3.60;99.90;;;;;;5047867;28;20190;-81
2020/12/09 11:53:19;;;;;;;12.75;5.35;;;3.60;99.90;;;;;;5049735;28;20198;-82
2020/12/09 11:55:45;;;;;;;9.35;5.03;;;3.60;99.90;;;;;;5048304;28;20323;-81
2020/12/09 11:58:59;;;;;;;11.82;5.63;;;3.60;99.90;;;;;;5047114;28;20206;-83
2020/12/09 12:01:25;;;;;;;9.13;5.40;;;3.50;99.90;;;;;;5038719;28;20205;-82
2020/12/09 12:03:50;;;;;;;8.65;5.20;;;3.60;99.90;;;;;;5048764;28;20579;-82
2020/12/09 12:06:28;;;;;;;9.30;4.85;;;3.50;99.90;;;;;;5047564;28;20242;-79
2020/12/09 12:08:54;;;;;;;11.05;5.38;;;3.40;99.90;;;;;;5046995;28;20189;-81
2020/12/09 12:11:22;;;;;;;12.65;5.25;;;3.50;99.90;;;;;;5048114;28;20601;-80
2020/12/09 12:13:51;;;;;;;7.55;4.70;;;3.50;99.90;;;;;;5042632;28;20553;-81
2020/12/09 12:16:23;;;;;;;9.05;4.80;;;3.50;99.90;;;;;;5042014;28;20683;-80
2020/12/09 12:18:49;;;;;;;9.20;5.40;;;3.50;99.90;;;;;;5049223;28;20207;-81
2020/12/09 12:21:25;;;;;;;12.18;6.63;;;3.50;99.90;;;;;;5046650;28;20198;-81
2020/12/09 12:23:51;;;;;;;10.50;5.72;;;3.50;99.90;;;;;;5058144;28;20205;-81
2020/12/09 12:26:19;;;;;;;10.65;5.88;;;3.50;99.90;;;;;;5045732;28;20198;-82
2020/12/09 12:28:45;;;;;;;9.82;5.22;;;3.60;99.90;;;;;;5048049;28;20190;-82
2020/12/09 12:31:12;;;;;;;10.90;5.60;;;3.50;99.90;;;;;;5038960;28;20644;-82
2020/12/09 12:33:39;;;;;;;10.02;5.60;;;3.50;99.90;;;;;;5044410;28;20975;-82
2020/12/09 12:36:05;;;;;;;12.60;6.30;;;3.50;99.90;;;;;;5046446;28;20202;-85
2020/12/09 12:38:32;;;;;;;11.90;5.88;;;3.60;99.90;;;;;;5044450;28;20213;-80
2020/12/09 12:40:57;;;;;;;10.02;5.40;;;3.60;99.90;;;;;;5048475;28;20200;-81
2020/12/09 12:43:23;;;;;;;9.75;5.68;;;3.60;99.90;;;;;;5047217;28;20205;-84
2020/12/09 12:45:49;;;;;;;8.57;5.38;;;3.60;99.90;;;;;;5035804;28;20198;-84
2020/12/09 12:48:20;;;;;;;11.90;5.93;;;3.60;99.90;;;;;;5041021;28;20189;-81
2020/12/09 12:51:07;;;;;;;10.70;5.63;;;3.60;99.90;;;;;;5050191;28;20197;-83
2020/12/09 12:54:16;;;;;;;10.68;5.75;;;3.60;99.90;;;;;;5048996;28;20320;-85
2020/12/09 12:56:42;;;;;;;11.10;5.40;;;3.60;99.90;;;;;;5034966;28;20209;-82
2020/12/09 12:59:07;;;;;;;11.43;6.15;;;3.50;99.90;;;;;;5044020;28;20339;-83
2020/12/09 13:01:33;;;;;;;11.32;6.00;;;3.50;99.90;;;;;;5047439;28;20682;-82
2020/12/09 13:03:59;;;;;;;12.05;6.10;;;3.50;99.90;;;;;;5042218;28;20733;-83